sensor_id;sensor_type;location;lat;lon;timestamp;P1;durP1;ratioP1;P2;durP2;ratioP2
80225;SDS011;69538;42.000;21.452;2023-07-08T00:01:40;15.68;;;10.00;;
80225;SDS011;69538;42.000;21.452;2023-07-08T00:04:06;18.73;;;11.02;;
80225;SDS011;69538;42.000;21.452;2023-07-08T00:06:32;20.05;;;10.07;;
80225;SDS011;69538;42.000;21.452;2023-07-08T00:08:59;19.42;;;9.88;;
80225;SDS011;69538;42.000;21.452;2023-07-08T00:11:25;20.90;;;9.35;;
80225;SDS011;69538;42.000;21.452;2023-07-08T00:13:52;15.60;;;9.73;;
80225;SDS011;69538;42.000;21.452;2023-07-08T00:16:18;14.00;;;8.65;;
80225;SDS011;69538;42.000;21.452;2023-07-08T00:18:45;15.48;;;9.38;;
80225;SDS011;69538;42.000;21.452;2023-07-08T00:21:14;18.15;;;8.77;;
80225;SDS011;69538;42.000;21.452;2023-07-08T00:23:48;17.80;;;8.60;;
80225;SDS011;69538;42.000;21.452;2023-07-08T00:26:17;13.65;;;8.60;;
80225;SDS011;69538;42.000;21.452;2023-07-08T00:28:44;16.20;;;8.90;;
80225;SDS011;69538;42.000;21.452;2023-07-08T00:31:10;15.80;;;10.25;;
80225;SDS011;69538;42.000;21.452;2023-07-08T00:33:37;19.15;;;9.65;;
80225;SDS011;69538;42.000;21.452;2023-07-08T00:36:07;18.58;;;9.48;;
80225;SDS011;69538;42.000;21.452;2023-07-08T00:38:34;16.65;;;9.65;;
80225;SDS011;69538;42.000;21.452;2023-07-08T00:43:39;17.48;;;9.93;;
80225;SDS011;69538;42.000;21.452;2023-07-08T00:46:13;17.63;;;9.82;;
80225;SDS011;69538;42.000;21.452;2023-07-08T00:48:43;18.23;;;8.20;;
80225;SDS011;69538;42.000;21.452;2023-07-08T00:51:10;13.27;;;8.60;;
80225;SDS011;69538;42.000;21.452;2023-07-08T00:53:37;14.30;;;8.75;;
80225;SDS011;69538;42.000;21.452;2023-07-08T00:56:12;14.48;;;7.82;;
80225;SDS011;69538;42.000;21.452;2023-07-08T00:58:43;13.35;;;7.63;;
80225;SDS011;69538;42.000;21.452;2023-07-08T01:01:10;10.75;;;7.22;;
80225;SDS011;69538;42.000;21.452;2023-07-08T01:03:40;14.02;;;6.82;;
80225;SDS011;69538;42.000;21.452;2023-07-08T01:06:09;13.82;;;7.15;;
80225;SDS011;69538;42.000;21.452;2023-07-08T01:08:35;13.25;;;6.75;;
80225;SDS011;69538;42.000;21.452;2023-07-08T01:11:02;14.73;;;7.63;;
80225;SDS011;69538;42.000;21.452;2023-07-08T01:13:30;12.60;;;7.30;;
80225;SDS011;69538;42.000;21.452;2023-07-08T01:15:57;13.23;;;7.13;;
80225;SDS011;69538;42.000;21.452;2023-07-08T01:18:24;12.50;;;7.55;;
80225;SDS011;69538;42.000;21.452;2023-07-08T01:20:50;14.40;;;7.65;;
80225;SDS011;69538;42.000;21.452;2023-07-08T01:23:21;13.93;;;7.10;;
80225;SDS011;69538;42.000;21.452;2023-07-08T01:25:47;14.60;;;7.13;;
80225;SDS011;69538;42.000;21.452;2023-07-08T01:28:13;12.93;;;6.53;;
80225;SDS011;69538;42.000;21.452;2023-07-08T01:30:43;13.15;;;7.05;;
80225;SDS011;69538;42.000;21.452;2023-07-08T01:33:17;11.57;;;6.60;;
80225;SDS011;69538;42.000;21.452;2023-07-08T01:35:44;14.23;;;6.78;;
80225;SDS011;69538;42.000;21.452;2023-07-08T01:38:10;13.00;;;7.13;;
80225;SDS011;69538;42.000;21.452;2023-07-08T01:40:38;12.40;;;6.45;;
80225;SDS011;69538;42.000;21.452;2023-07-08T01:43:05;13.98;;;6.07;;
80225;SDS011;69538;42.000;21.452;2023-07-08T01:45:33;11.63;;;5.88;;
80225;SDS011;69538;42.000;21.452;2023-07-08T01:48:04;14.30;;;6.50;;
80225;SDS011;69538;42.000;21.452;2023-07-08T01:50:31;13.65;;;6.45;;
80225;SDS011;69538;42.000;21.452;2023-07-08T01:52:59;11.57;;;6.53;;
80225;SDS011;69538;42.000;21.452;2023-07-08T01:55:26;11.63;;;6.50;;
80225;SDS011;69538;42.000;21.452;2023-07-08T01:57:56;12.20;;;6.78;;
80225;SDS011;69538;42.000;21.452;2023-07-08T02:00:23;10.95;;;7.18;;
80225;SDS011;69538;42.000;21.452;2023-07-08T02:02:50;9.27;;;6.28;;
80225;SDS011;69538;42.000;21.452;2023-07-08T02:05:16;10.68;;;6.78;;
80225;SDS011;69538;42.000;21.452;2023-07-08T02:07:43;13.05;;;7.30;;
80225;SDS011;69538;42.000;21.452;2023-07-08T02:10:09;13.35;;;7.68;;
80225;SDS011;69538;42.000;21.452;2023-07-08T02:12:35;10.93;;;6.97;;
80225;SDS011;69538;42.000;21.452;2023-07-08T02:15:01;10.93;;;7.38;;
80225;SDS011;69538;42.000;21.452;2023-07-08T02:17:28;13.48;;;7.05;;
80225;SDS011;69538;42.000;21.452;2023-07-08T02:19:54;11.73;;;7.40;;
80225;SDS011;69538;42.000;21.452;2023-07-08T02:22:21;14.82;;;8.18;;
80225;SDS011;69538;42.000;21.452;2023-07-08T02:24:47;12.10;;;7.32;;
80225;SDS011;69538;42.000;21.452;2023-07-08T02:27:13;13.15;;;7.53;;
80225;SDS011;69538;42.000;21.452;2023-07-08T02:29:40;14.30;;;7.82;;
80225;SDS011;69538;42.000;21.452;2023-07-08T02:32:06;13.70;;;7.60;;
80225;SDS011;69538;42.000;21.452;2023-07-08T02:34:34;18.40;;;7.85;;
80225;SDS011;69538;42.000;21.452;2023-07-08T02:37:00;12.55;;;7.40;;
80225;SDS011;69538;42.000;21.452;2023-07-08T02:39:26;17.63;;;8.23;;
80225;SDS011;69538;42.000;21.452;2023-07-08T02:41:53;14.48;;;8.05;;
80225;SDS011;69538;42.000;21.452;2023-07-08T02:44:19;12.40;;;6.85;;
80225;SDS011;69538;42.000;21.452;2023-07-08T02:46:45;8.85;;;6.30;;
80225;SDS011;69538;42.000;21.452;2023-07-08T02:49:11;12.55;;;8.30;;
80225;SDS011;69538;42.000;21.452;2023-07-08T02:51:37;13.55;;;7.10;;
80225;SDS011;69538;42.000;21.452;2023-07-08T02:54:03;14.50;;;5.80;;
80225;SDS011;69538;42.000;21.452;2023-07-08T02:56:29;11.75;;;6.88;;
80225;SDS011;69538;42.000;21.452;2023-07-08T02:58:56;14.55;;;7.20;;
80225;SDS011;69538;42.000;21.452;2023-07-08T03:01:22;10.35;;;6.25;;
80225;SDS011;69538;42.000;21.452;2023-07-08T03:03:48;12.23;;;5.72;;
80225;SDS011;69538;42.000;21.452;2023-07-08T03:06:15;14.25;;;7.28;;
80225;SDS011;69538;42.000;21.452;2023-07-08T03:08:41;13.45;;;7.32;;
80225;SDS011;69538;42.000;21.452;2023-07-08T03:11:07;11.50;;;6.63;;
80225;SDS011;69538;42.000;21.452;2023-07-08T03:13:34;18.88;;;6.55;;
80225;SDS011;69538;42.000;21.452;2023-07-08T03:16:00;12.82;;;7.32;;
80225;SDS011;69538;42.000;21.452;2023-07-08T03:18:27;12.70;;;6.93;;
80225;SDS011;69538;42.000;21.452;2023-07-08T03:20:54;10.30;;;6.30;;
80225;SDS011;69538;42.000;21.452;2023-07-08T03:23:21;10.50;;;6.00;;
80225;SDS011;69538;42.000;21.452;2023-07-08T03:25:49;10.63;;;6.20;;
80225;SDS011;69538;42.000;21.452;2023-07-08T03:28:15;12.68;;;6.32;;
80225;SDS011;69538;42.000;21.452;2023-07-08T03:30:42;12.75;;;6.65;;
80225;SDS011;69538;42.000;21.452;2023-07-08T03:33:08;12.88;;;6.70;;
80225;SDS011;69538;42.000;21.452;2023-07-08T03:35:34;11.10;;;5.55;;
80225;SDS011;69538;42.000;21.452;2023-07-08T03:38:01;14.20;;;5.80;;
80225;SDS011;69538;42.000;21.452;2023-07-08T03:40:27;11.57;;;6.25;;
80225;SDS011;69538;42.000;21.452;2023-07-08T03:42:54;12.85;;;5.13;;
80225;SDS011;69538;42.000;21.452;2023-07-08T03:45:20;12.23;;;6.28;;
80225;SDS011;69538;42.000;21.452;2023-07-08T03:47:46;11.45;;;6.22;;
80225;SDS011;69538;42.000;21.452;2023-07-08T03:50:19;11.57;;;5.97;;
80225;SDS011;69538;42.000;21.452;2023-07-08T03:52:46;11.40;;;5.95;;
80225;SDS011;69538;42.000;21.452;2023-07-08T03:55:12;11.38;;;6.60;;
80225;SDS011;69538;42.000;21.452;2023-07-08T03:57:39;12.55;;;6.28;;
80225;SDS011;69538;42.000;21.452;2023-07-08T04:00:05;13.57;;;6.22;;
80225;SDS011;69538;42.000;21.452;2023-07-08T04:02:35;12.65;;;7.20;;
80225;SDS011;69538;42.000;21.452;2023-07-08T04:05:02;11.30;;;6.07;;
80225;SDS011;69538;42.000;21.452;2023-07-08T04:07:28;11.52;;;6.07;;
80225;SDS011;69538;42.000;21.452;2023-07-08T04:09:54;9.48;;;6.13;;
80225;SDS011;69538;42.000;21.452;2023-07-08T04:12:20;11.80;;;6.03;;
80225;SDS011;69538;42.000;21.452;2023-07-08T04:14:47;12.05;;;6.15;;
80225;SDS011;69538;42.000;21.452;2023-07-08T04:17:13;11.13;;;5.68;;
80225;SDS011;69538;42.000;21.452;2023-07-08T04:19:40;14.55;;;6.35;;
80225;SDS011;69538;42.000;21.452;2023-07-08T04:22:09;10.55;;;6.45;;
80225;SDS011;69538;42.000;21.452;2023-07-08T04:24:35;11.75;;;5.97;;
80225;SDS011;69538;42.000;21.452;2023-07-08T04:27:02;12.77;;;6.90;;
80225;SDS011;69538;42.000;21.452;2023-07-08T04:29:28;11.15;;;6.80;;
80225;SDS011;69538;42.000;21.452;2023-07-08T04:31:54;12.05;;;5.93;;
80225;SDS011;69538;42.000;21.452;2023-07-08T04:34:20;16.02;;;7.18;;
80225;SDS011;69538;42.000;21.452;2023-07-08T04:36:47;14.43;;;6.47;;
80225;SDS011;69538;42.000;21.452;2023-07-08T04:39:13;12.85;;;6.35;;
80225;SDS011;69538;42.000;21.452;2023-07-08T04:41:39;12.07;;;5.68;;
80225;SDS011;69538;42.000;21.452;2023-07-08T04:44:06;11.05;;;6.07;;
80225;SDS011;69538;42.000;21.452;2023-07-08T04:46:43;14.88;;;6.75;;
80225;SDS011;69538;42.000;21.452;2023-07-08T04:49:11;12.68;;;6.40;;
80225;SDS011;69538;42.000;21.452;2023-07-08T04:51:40;13.48;;;6.30;;
80225;SDS011;69538;42.000;21.452;2023-07-08T04:54:06;15.10;;;6.53;;
80225;SDS011;69538;42.000;21.452;2023-07-08T04:56:37;13.32;;;5.95;;
80225;SDS011;69538;42.000;21.452;2023-07-08T04:59:04;12.25;;;7.20;;
80225;SDS011;69538;42.000;21.452;2023-07-08T05:01:30;10.45;;;5.95;;
80225;SDS011;69538;42.000;21.452;2023-07-08T05:03:56;17.80;;;6.22;;
80225;SDS011;69538;42.000;21.452;2023-07-08T05:06:22;12.38;;;5.93;;
80225;SDS011;69538;42.000;21.452;2023-07-08T05:08:49;9.85;;;6.30;;
80225;SDS011;69538;42.000;21.452;2023-07-08T05:11:15;10.50;;;6.05;;
80225;SDS011;69538;42.000;21.452;2023-07-08T05:13:41;9.80;;;5.72;;
80225;SDS011;69538;42.000;21.452;2023-07-08T05:16:07;17.05;;;6.82;;
80225;SDS011;69538;42.000;21.452;2023-07-08T05:18:33;9.68;;;5.90;;
80225;SDS011;69538;42.000;21.452;2023-07-08T05:20:59;9.73;;;5.30;;
80225;SDS011;69538;42.000;21.452;2023-07-08T05:23:26;9.60;;;6.30;;
80225;SDS011;69538;42.000;21.452;2023-07-08T05:25:52;10.57;;;6.28;;
80225;SDS011;69538;42.000;21.452;2023-07-08T05:28:19;13.15;;;6.00;;
80225;SDS011;69538;42.000;21.452;2023-07-08T05:30:51;11.65;;;7.28;;
80225;SDS011;69538;42.000;21.452;2023-07-08T05:33:19;11.52;;;6.25;;
80225;SDS011;69538;42.000;21.452;2023-07-08T05:35:45;12.65;;;6.63;;
80225;SDS011;69538;42.000;21.452;2023-07-08T05:38:11;10.95;;;6.68;;
80225;SDS011;69538;42.000;21.452;2023-07-08T05:40:38;12.35;;;7.20;;
80225;SDS011;69538;42.000;21.452;2023-07-08T05:43:04;12.52;;;7.22;;
80225;SDS011;69538;42.000;21.452;2023-07-08T05:45:30;11.52;;;6.75;;
80225;SDS011;69538;42.000;21.452;2023-07-08T05:47:56;13.00;;;6.72;;
80225;SDS011;69538;42.000;21.452;2023-07-08T05:50:22;10.38;;;6.60;;
80225;SDS011;69538;42.000;21.452;2023-07-08T05:52:48;12.32;;;7.10;;
80225;SDS011;69538;42.000;21.452;2023-07-08T05:55:14;13.10;;;7.65;;
80225;SDS011;69538;42.000;21.452;2023-07-08T05:57:41;10.93;;;7.38;;
80225;SDS011;69538;42.000;21.452;2023-07-08T06:00:08;10.95;;;6.63;;
80225;SDS011;69538;42.000;21.452;2023-07-08T06:02:34;13.10;;;7.35;;
80225;SDS011;69538;42.000;21.452;2023-07-08T06:05:00;15.07;;;6.97;;
80225;SDS011;69538;42.000;21.452;2023-07-08T06:07:27;13.13;;;7.18;;
80225;SDS011;69538;42.000;21.452;2023-07-08T06:09:53;12.63;;;7.38;;
80225;SDS011;69538;42.000;21.452;2023-07-08T06:12:21;13.57;;;7.28;;
80225;SDS011;69538;42.000;21.452;2023-07-08T06:14:47;9.77;;;4.85;;
80225;SDS011;69538;42.000;21.452;2023-07-08T06:17:13;10.90;;;6.43;;
80225;SDS011;69538;42.000;21.452;2023-07-08T06:19:39;10.60;;;7.38;;
80225;SDS011;69538;42.000;21.452;2023-07-08T06:22:06;15.05;;;6.88;;
80225;SDS011;69538;42.000;21.452;2023-07-08T06:24:32;10.40;;;6.45;;
80225;SDS011;69538;42.000;21.452;2023-07-08T06:26:58;13.07;;;5.90;;
80225;SDS011;69538;42.000;21.452;2023-07-08T06:29:24;11.50;;;7.20;;
80225;SDS011;69538;42.000;21.452;2023-07-08T06:31:51;10.23;;;6.40;;
80225;SDS011;69538;42.000;21.452;2023-07-08T06:34:17;14.05;;;8.95;;
80225;SDS011;69538;42.000;21.452;2023-07-08T06:36:44;11.13;;;8.43;;
80225;SDS011;69538;42.000;21.452;2023-07-08T06:39:10;10.73;;;7.95;;
80225;SDS011;69538;42.000;21.452;2023-07-08T06:41:37;13.00;;;6.55;;
80225;SDS011;69538;42.000;21.452;2023-07-08T06:44:03;9.65;;;6.88;;
80225;SDS011;69538;42.000;21.452;2023-07-08T06:46:30;12.32;;;6.95;;
80225;SDS011;69538;42.000;21.452;2023-07-08T06:48:56;12.27;;;7.78;;
80225;SDS011;69538;42.000;21.452;2023-07-08T06:51:22;12.90;;;7.20;;
80225;SDS011;69538;42.000;21.452;2023-07-08T06:53:48;16.55;;;6.68;;
80225;SDS011;69538;42.000;21.452;2023-07-08T06:56:14;11.13;;;6.85;;
80225;SDS011;69538;42.000;21.452;2023-07-08T06:58:41;13.27;;;7.00;;
80225;SDS011;69538;42.000;21.452;2023-07-08T07:01:07;11.55;;;7.32;;
80225;SDS011;69538;42.000;21.452;2023-07-08T07:03:33;9.55;;;6.40;;
80225;SDS011;69538;42.000;21.452;2023-07-08T07:05:59;12.95;;;6.53;;
80225;SDS011;69538;42.000;21.452;2023-07-08T07:08:25;10.88;;;5.97;;
80225;SDS011;69538;42.000;21.452;2023-07-08T07:10:51;11.68;;;6.72;;
80225;SDS011;69538;42.000;21.452;2023-07-08T07:13:18;11.82;;;6.70;;
80225;SDS011;69538;42.000;21.452;2023-07-08T07:15:44;9.85;;;5.30;;
80225;SDS011;69538;42.000;21.452;2023-07-08T07:18:10;8.55;;;5.75;;
80225;SDS011;69538;42.000;21.452;2023-07-08T07:20:37;10.30;;;5.63;;
80225;SDS011;69538;42.000;21.452;2023-07-08T07:23:03;9.30;;;5.28;;
80225;SDS011;69538;42.000;21.452;2023-07-08T07:25:29;10.32;;;5.95;;
80225;SDS011;69538;42.000;21.452;2023-07-08T07:27:55;9.05;;;5.68;;
80225;SDS011;69538;42.000;21.452;2023-07-08T07:30:22;9.13;;;5.72;;
80225;SDS011;69538;42.000;21.452;2023-07-08T07:32:48;6.88;;;3.28;;
80225;SDS011;69538;42.000;21.452;2023-07-08T07:35:14;13.25;;;5.18;;
80225;SDS011;69538;42.000;21.452;2023-07-08T07:37:42;7.88;;;4.72;;
80225;SDS011;69538;42.000;21.452;2023-07-08T07:40:09;11.65;;;5.32;;
80225;SDS011;69538;42.000;21.452;2023-07-08T07:42:38;8.05;;;5.18;;
80225;SDS011;69538;42.000;21.452;2023-07-08T07:45:04;9.35;;;5.10;;
80225;SDS011;69538;42.000;21.452;2023-07-08T07:47:31;7.28;;;4.30;;
80225;SDS011;69538;42.000;21.452;2023-07-08T07:49:57;8.70;;;4.88;;
80225;SDS011;69538;42.000;21.452;2023-07-08T07:52:24;7.65;;;4.63;;
80225;SDS011;69538;42.000;21.452;2023-07-08T07:54:51;8.13;;;4.30;;
80225;SDS011;69538;42.000;21.452;2023-07-08T07:57:19;6.55;;;4.65;;
80225;SDS011;69538;42.000;21.452;2023-07-08T07:59:45;9.20;;;5.18;;
80225;SDS011;69538;42.000;21.452;2023-07-08T08:02:12;8.52;;;5.32;;
80225;SDS011;69538;42.000;21.452;2023-07-08T08:04:38;11.98;;;5.38;;
80225;SDS011;69538;42.000;21.452;2023-07-08T08:07:04;9.48;;;5.18;;
80225;SDS011;69538;42.000;21.452;2023-07-08T08:09:31;8.40;;;5.25;;
80225;SDS011;69538;42.000;21.452;2023-07-08T08:11:57;10.60;;;4.07;;
80225;SDS011;69538;42.000;21.452;2023-07-08T08:14:23;9.20;;;5.22;;
80225;SDS011;69538;42.000;21.452;2023-07-08T08:16:49;8.55;;;5.30;;
80225;SDS011;69538;42.000;21.452;2023-07-08T08:19:15;8.27;;;4.25;;
80225;SDS011;69538;42.000;21.452;2023-07-08T08:21:42;8.23;;;4.82;;
80225;SDS011;69538;42.000;21.452;2023-07-08T08:24:08;8.75;;;4.85;;
80225;SDS011;69538;42.000;21.452;2023-07-08T08:26:35;8.98;;;4.78;;
80225;SDS011;69538;42.000;21.452;2023-07-08T08:29:01;13.95;;;5.38;;
80225;SDS011;69538;42.000;21.452;2023-07-08T08:31:28;9.48;;;4.57;;
80225;SDS011;69538;42.000;21.452;2023-07-08T08:33:56;9.95;;;4.93;;
80225;SDS011;69538;42.000;21.452;2023-07-08T08:36:22;16.13;;;11.40;;
80225;SDS011;69538;42.000;21.452;2023-07-08T08:38:48;10.50;;;5.50;;
80225;SDS011;69538;42.000;21.452;2023-07-08T08:41:27;11.27;;;7.35;;
80225;SDS011;69538;42.000;21.452;2023-07-08T08:43:55;9.15;;;5.22;;
80225;SDS011;69538;42.000;21.452;2023-07-08T08:46:31;8.75;;;4.10;;
80225;SDS011;69538;42.000;21.452;2023-07-08T08:49:15;9.30;;;4.72;;
80225;SDS011;69538;42.000;21.452;2023-07-08T08:51:44;8.95;;;4.82;;
80225;SDS011;69538;42.000;21.452;2023-07-08T08:54:10;5.93;;;3.25;;
80225;SDS011;69538;42.000;21.452;2023-07-08T08:56:42;9.88;;;5.22;;
80225;SDS011;69538;42.000;21.452;2023-07-08T09:01:46;12.07;;;4.68;;
80225;SDS011;69538;42.000;21.452;2023-07-08T09:04:20;9.93;;;5.38;;
80225;SDS011;69538;42.000;21.452;2023-07-08T09:06:47;13.52;;;5.35;;
80225;SDS011;69538;42.000;21.452;2023-07-08T09:14:33;9.88;;;5.35;;
80225;SDS011;69538;42.000;21.452;2023-07-08T09:17:17;12.05;;;4.07;;
80225;SDS011;69538;42.000;21.452;2023-07-08T09:22:34;11.55;;;5.63;;
80225;SDS011;69538;42.000;21.452;2023-07-08T09:27:46;8.60;;;4.97;;
80225;SDS011;69538;42.000;21.452;2023-07-08T09:30:14;8.50;;;4.45;;
80225;SDS011;69538;42.000;21.452;2023-07-08T09:32:40;12.32;;;4.50;;
80225;SDS011;69538;42.000;21.452;2023-07-08T09:35:07;11.18;;;5.80;;
80225;SDS011;69538;42.000;21.452;2023-07-08T09:37:35;11.80;;;6.50;;
80225;SDS011;69538;42.000;21.452;2023-07-08T09:40:14;11.32;;;6.13;;
80225;SDS011;69538;42.000;21.452;2023-07-08T09:42:40;12.27;;;6.07;;
80225;SDS011;69538;42.000;21.452;2023-07-08T09:45:11;12.15;;;4.47;;
80225;SDS011;69538;42.000;21.452;2023-07-08T09:47:38;11.50;;;5.78;;
80225;SDS011;69538;42.000;21.452;2023-07-08T09:50:38;12.90;;;4.35;;
80225;SDS011;69538;42.000;21.452;2023-07-08T09:52:58;11.02;;;5.22;;
80225;SDS011;69538;42.000;21.452;2023-07-08T09:55:26;9.43;;;5.72;;
80225;SDS011;69538;42.000;21.452;2023-07-08T10:00:26;10.32;;;6.03;;
80225;SDS011;69538;42.000;21.452;2023-07-08T10:02:56;11.48;;;6.05;;
80225;SDS011;69538;42.000;21.452;2023-07-08T10:05:24;15.75;;;6.10;;
80225;SDS011;69538;42.000;21.452;2023-07-08T10:07:53;10.20;;;5.65;;
80225;SDS011;69538;42.000;21.452;2023-07-08T10:10:28;9.68;;;5.53;;
80225;SDS011;69538;42.000;21.452;2023-07-08T10:13:12;10.65;;;5.50;;
80225;SDS011;69538;42.000;21.452;2023-07-08T10:16:26;13.20;;;5.78;;
80225;SDS011;69538;42.000;21.452;2023-07-08T10:18:28;9.32;;;5.25;;
80225;SDS011;69538;42.000;21.452;2023-07-08T10:20:57;8.15;;;5.22;;
80225;SDS011;69538;42.000;21.452;2023-07-08T10:23:29;7.88;;;5.28;;
80225;SDS011;69538;42.000;21.452;2023-07-08T10:26:00;11.20;;;4.88;;
80225;SDS011;69538;42.000;21.452;2023-07-08T10:29:02;14.80;;;6.22;;
80225;SDS011;69538;42.000;21.452;2023-07-08T10:31:24;9.85;;;4.88;;
80225;SDS011;69538;42.000;21.452;2023-07-08T10:42:03;9.30;;;5.88;;
80225;SDS011;69538;42.000;21.452;2023-07-08T10:44:35;10.82;;;5.65;;
80225;SDS011;69538;42.000;21.452;2023-07-08T10:47:07;11.88;;;5.82;;
80225;SDS011;69538;42.000;21.452;2023-07-08T10:49:43;9.07;;;5.10;;
80225;SDS011;69538;42.000;21.452;2023-07-08T10:52:21;11.05;;;5.40;;
80225;SDS011;69538;42.000;21.452;2023-07-08T11:05:40;8.25;;;3.95;;
80225;SDS011;69538;42.000;21.452;2023-07-08T11:08:24;10.32;;;5.80;;
80225;SDS011;69538;42.000;21.452;2023-07-08T11:11:08;10.38;;;5.00;;
80225;SDS011;69538;42.000;21.452;2023-07-08T11:13:36;9.25;;;4.45;;
80225;SDS011;69538;42.000;21.452;2023-07-08T11:16:12;9.35;;;5.25;;
80225;SDS011;69538;42.000;21.452;2023-07-08T11:21:12;8.70;;;4.88;;
80225;SDS011;69538;42.000;21.452;2023-07-08T11:23:41;8.90;;;5.80;;
80225;SDS011;69538;42.000;21.452;2023-07-08T11:26:29;10.27;;;5.20;;
80225;SDS011;69538;42.000;21.452;2023-07-08T11:28:57;10.43;;;4.18;;
80225;SDS011;69538;42.000;21.452;2023-07-08T11:31:30;10.38;;;4.82;;
80225;SDS011;69538;42.000;21.452;2023-07-08T11:33:57;10.15;;;4.72;;
80225;SDS011;69538;42.000;21.452;2023-07-08T11:36:23;10.07;;;5.40;;
80225;SDS011;69538;42.000;21.452;2023-07-08T11:38:54;8.77;;;4.95;;
80225;SDS011;69538;42.000;21.452;2023-07-08T11:41:27;7.50;;;4.95;;
80225;SDS011;69538;42.000;21.452;2023-07-08T11:43:57;9.43;;;4.95;;
80225;SDS011;69538;42.000;21.452;2023-07-08T11:46:27;11.68;;;5.22;;
80225;SDS011;69538;42.000;21.452;2023-07-08T11:48:56;10.65;;;4.82;;
80225;SDS011;69538;42.000;21.452;2023-07-08T11:51:24;8.27;;;4.07;;
80225;SDS011;69538;42.000;21.452;2023-07-08T11:53:58;7.90;;;4.32;;
80225;SDS011;69538;42.000;21.452;2023-07-08T11:56:25;7.63;;;4.88;;
80225;SDS011;69538;42.000;21.452;2023-07-08T11:58:52;10.75;;;5.00;;
80225;SDS011;69538;42.000;21.452;2023-07-08T12:09:13;9.88;;;5.03;;
80225;SDS011;69538;42.000;21.452;2023-07-08T12:11:40;8.57;;;4.43;;
80225;SDS011;69538;42.000;21.452;2023-07-08T12:14:09;7.07;;;4.75;;
80225;SDS011;69538;42.000;21.452;2023-07-08T12:16:35;7.40;;;4.88;;
80225;SDS011;69538;42.000;21.452;2023-07-08T12:19:02;9.40;;;5.75;;
80225;SDS011;69538;42.000;21.452;2023-07-08T12:21:30;8.45;;;4.60;;
80225;SDS011;69538;42.000;21.452;2023-07-08T12:24:03;9.25;;;5.47;;
80225;SDS011;69538;42.000;21.452;2023-07-08T12:26:29;7.18;;;4.55;;
80225;SDS011;69538;42.000;21.452;2023-07-08T12:28:56;10.55;;;5.25;;
80225;SDS011;69538;42.000;21.452;2023-07-08T12:31:23;7.43;;;5.05;;
80225;SDS011;69538;42.000;21.452;2023-07-08T12:33:49;7.97;;;4.90;;
80225;SDS011;69538;42.000;21.452;2023-07-08T12:36:18;7.57;;;5.07;;
80225;SDS011;69538;42.000;21.452;2023-07-08T12:38:45;7.50;;;4.60;;
80225;SDS011;69538;42.000;21.452;2023-07-08T12:41:12;8.52;;;4.47;;
80225;SDS011;69538;42.000;21.452;2023-07-08T12:43:39;9.23;;;4.25;;
80225;SDS011;69538;42.000;21.452;2023-07-08T12:46:05;8.10;;;4.72;;
80225;SDS011;69538;42.000;21.452;2023-07-08T12:48:34;6.90;;;4.75;;
80225;SDS011;69538;42.000;21.452;2023-07-08T12:51:02;7.35;;;5.13;;
80225;SDS011;69538;42.000;21.452;2023-07-08T12:53:28;8.85;;;4.82;;
80225;SDS011;69538;42.000;21.452;2023-07-08T12:55:55;6.90;;;4.72;;
80225;SDS011;69538;42.000;21.452;2023-07-08T12:58:24;7.55;;;5.07;;
80225;SDS011;69538;42.000;21.452;2023-07-08T13:00:53;6.05;;;3.17;;
80225;SDS011;69538;42.000;21.452;2023-07-08T13:03:24;6.93;;;4.47;;
80225;SDS011;69538;42.000;21.452;2023-07-08T13:05:52;9.85;;;4.78;;
80225;SDS011;69538;42.000;21.452;2023-07-08T13:08:20;7.78;;;4.75;;
80225;SDS011;69538;42.000;21.452;2023-07-08T13:10:47;7.47;;;4.40;;
80225;SDS011;69538;42.000;21.452;2023-07-08T13:13:28;9.48;;;4.85;;
80225;SDS011;69538;42.000;21.452;2023-07-08T13:15:55;10.32;;;4.80;;
80225;SDS011;69538;42.000;21.452;2023-07-08T13:18:25;10.25;;;4.70;;
80225;SDS011;69538;42.000;21.452;2023-07-08T13:20:53;8.63;;;4.43;;
80225;SDS011;69538;42.000;21.452;2023-07-08T13:23:20;9.80;;;4.72;;
80225;SDS011;69538;42.000;21.452;2023-07-08T13:25:50;6.00;;;4.05;;
80225;SDS011;69538;42.000;21.452;2023-07-08T13:28:22;10.90;;;4.00;;
80225;SDS011;69538;42.000;21.452;2023-07-08T13:30:49;10.93;;;5.18;;
80225;SDS011;69538;42.000;21.452;2023-07-08T13:33:17;10.38;;;4.72;;
80225;SDS011;69538;42.000;21.452;2023-07-08T13:35:44;7.57;;;4.60;;
80225;SDS011;69538;42.000;21.452;2023-07-08T13:38:18;10.88;;;5.20;;
80225;SDS011;69538;42.000;21.452;2023-07-08T13:40:45;8.63;;;4.90;;
80225;SDS011;69538;42.000;21.452;2023-07-08T13:43:12;6.88;;;4.47;;
80225;SDS011;69538;42.000;21.452;2023-07-08T13:45:41;6.78;;;4.43;;
80225;SDS011;69538;42.000;21.452;2023-07-08T13:48:34;7.65;;;4.45;;
80225;SDS011;69538;42.000;21.452;2023-07-08T13:53:26;9.35;;;4.95;;
80225;SDS011;69538;42.000;21.452;2023-07-08T13:56:00;7.80;;;4.78;;
80225;SDS011;69538;42.000;21.452;2023-07-08T13:58:27;10.85;;;4.93;;
80225;SDS011;69538;42.000;21.452;2023-07-08T14:00:54;7.35;;;4.85;;
80225;SDS011;69538;42.000;21.452;2023-07-08T14:03:21;9.07;;;4.97;;
80225;SDS011;69538;42.000;21.452;2023-07-08T14:05:47;8.00;;;4.53;;
80225;SDS011;69538;42.000;21.452;2023-07-08T14:08:14;7.53;;;4.88;;
80225;SDS011;69538;42.000;21.452;2023-07-08T14:10:41;7.45;;;4.00;;
80225;SDS011;69538;42.000;21.452;2023-07-08T14:13:07;9.35;;;4.57;;
80225;SDS011;69538;42.000;21.452;2023-07-08T14:15:33;8.07;;;4.43;;
80225;SDS011;69538;42.000;21.452;2023-07-08T14:18:00;8.20;;;4.70;;
80225;SDS011;69538;42.000;21.452;2023-07-08T14:20:26;7.10;;;4.47;;
80225;SDS011;69538;42.000;21.452;2023-07-08T14:22:53;8.27;;;4.53;;
80225;SDS011;69538;42.000;21.452;2023-07-08T14:25:19;6.40;;;4.43;;
80225;SDS011;69538;42.000;21.452;2023-07-08T14:27:46;6.57;;;4.32;;
80225;SDS011;69538;42.000;21.452;2023-07-08T14:30:12;10.60;;;4.82;;
80225;SDS011;69538;42.000;21.452;2023-07-08T14:32:40;9.63;;;6.90;;
80225;SDS011;69538;42.000;21.452;2023-07-08T14:35:15;16.70;;;6.68;;
80225;SDS011;69538;42.000;21.452;2023-07-08T14:37:42;10.20;;;4.95;;
80225;SDS011;69538;42.000;21.452;2023-07-08T14:42:43;8.13;;;5.13;;
80225;SDS011;69538;42.000;21.452;2023-07-08T14:45:10;7.65;;;4.70;;
80225;SDS011;69538;42.000;21.452;2023-07-08T14:47:36;7.03;;;4.38;;
80225;SDS011;69538;42.000;21.452;2023-07-08T14:50:12;9.40;;;4.88;;
80225;SDS011;69538;42.000;21.452;2023-07-08T14:52:38;9.18;;;4.80;;
80225;SDS011;69538;42.000;21.452;2023-07-08T14:55:05;9.48;;;5.03;;
80225;SDS011;69538;42.000;21.452;2023-07-08T14:57:33;9.70;;;5.28;;
80225;SDS011;69538;42.000;21.452;2023-07-08T15:00:01;7.65;;;4.80;;
80225;SDS011;69538;42.000;21.452;2023-07-08T15:04:55;10.77;;;5.25;;
80225;SDS011;69538;42.000;21.452;2023-07-08T15:07:21;11.27;;;5.00;;
80225;SDS011;69538;42.000;21.452;2023-07-08T15:09:47;11.07;;;4.90;;
80225;SDS011;69538;42.000;21.452;2023-07-08T15:12:13;10.27;;;4.78;;
80225;SDS011;69538;42.000;21.452;2023-07-08T15:14:39;10.73;;;4.75;;
80225;SDS011;69538;42.000;21.452;2023-07-08T15:17:15;9.43;;;4.70;;
80225;SDS011;69538;42.000;21.452;2023-07-08T15:19:42;7.65;;;4.10;;
80225;SDS011;69538;42.000;21.452;2023-07-08T15:22:08;8.85;;;4.90;;
80225;SDS011;69538;42.000;21.452;2023-07-08T15:24:35;13.05;;;5.63;;
80225;SDS011;69538;42.000;21.452;2023-07-08T15:27:02;9.48;;;4.90;;